sensor_id;sensor_type;location;lat;lon;timestamp;P1;durP1;ratioP1;P2;durP2;ratioP2
46927;SDS011;32668;51.306;-0.576;2022-09-03T00:00:14;23.25;;;16.20;;
46927;SDS011;32668;51.306;-0.576;2022-09-03T00:10:34;26.17;;;18.13;;
46927;SDS011;32668;51.306;-0.576;2022-09-03T00:13:23;23.98;;;18.08;;
46927;SDS011;32668;51.306;-0.576;2022-09-03T00:15:53;27.58;;;18.00;;
46927;SDS011;32668;51.306;-0.576;2022-09-03T00:18:22;22.17;;;16.35;;
46927;SDS011;32668;51.306;-0.576;2022-09-03T00:20:56;28.02;;;19.80;;
46927;SDS011;32668;51.306;-0.576;2022-09-03T00:23:37;24.30;;;16.75;;
46927;SDS011;32668;51.306;-0.576;2022-09-03T00:31:15;23.08;;;19.00;;
46927;SDS011;32668;51.306;-0.576;2022-09-03T00:33:47;27.45;;;18.58;;
46927;SDS011;32668;51.306;-0.576;2022-09-03T00:36:24;24.52;;;18.92;;
46927;SDS011;32668;51.306;-0.576;2022-09-03T00:38:57;22.95;;;18.73;;
46927;SDS011;32668;51.306;-0.576;2022-09-03T00:41:29;22.08;;;18.63;;
46927;SDS011;32668;51.306;-0.576;2022-09-03T00:44:35;26.65;;;18.75;;
46927;SDS011;32668;51.306;-0.576;2022-09-03T01:01:15;25.58;;;17.90;;
46927;SDS011;32668;51.306;-0.576;2022-09-03T01:08:56;28.00;;;16.67;;
46927;SDS011;32668;51.306;-0.576;2022-09-03T01:14:28;17.95;;;15.02;;
46927;SDS011;32668;51.306;-0.576;2022-09-03T01:36:47;22.02;;;17.70;;
46927;SDS011;32668;51.306;-0.576;2022-09-03T01:39:36;22.83;;;16.70;;
46927;SDS011;32668;51.306;-0.576;2022-09-03T01:47:55;20.75;;;16.65;;
46927;SDS011;32668;51.306;-0.576;2022-09-03T01:53:34;23.67;;;15.57;;
46927;SDS011;32668;51.306;-0.576;2022-09-03T02:04:26;24.20;;;17.52;;
46927;SDS011;32668;51.306;-0.576;2022-09-03T02:06:52;19.45;;;15.48;;
46927;SDS011;32668;51.306;-0.576;2022-09-03T02:09:21;24.00;;;16.27;;
46927;SDS011;32668;51.306;-0.576;2022-09-03T02:11:49;20.08;;;17.73;;
46927;SDS011;32668;51.306;-0.576;2022-09-03T02:14:19;21.50;;;16.83;;
46927;SDS011;32668;51.306;-0.576;2022-09-03T02:16:44;22.60;;;17.52;;
46927;SDS011;32668;51.306;-0.576;2022-09-03T02:19:11;21.60;;;17.10;;
46927;SDS011;32668;51.306;-0.576;2022-09-03T02:21:42;23.90;;;17.63;;
46927;SDS011;32668;51.306;-0.576;2022-09-03T02:24:16;25.15;;;17.90;;
46927;SDS011;32668;51.306;-0.576;2022-09-03T02:26:42;21.92;;;15.80;;
46927;SDS011;32668;51.306;-0.576;2022-09-03T02:29:07;21.80;;;15.38;;
46927;SDS011;32668;51.306;-0.576;2022-09-03T02:31:34;22.85;;;15.70;;
46927;SDS011;32668;51.306;-0.576;2022-09-03T02:34:00;21.90;;;15.15;;
46927;SDS011;32668;51.306;-0.576;2022-09-03T02:36:29;22.15;;;15.90;;
46927;SDS011;32668;51.306;-0.576;2022-09-03T02:38:58;18.70;;;14.65;;
46927;SDS011;32668;51.306;-0.576;2022-09-03T02:41:23;19.98;;;16.15;;
46927;SDS011;32668;51.306;-0.576;2022-09-03T02:43:59;24.35;;;18.35;;
46927;SDS011;32668;51.306;-0.576;2022-09-03T02:46:38;20.65;;;15.35;;
46927;SDS011;32668;51.306;-0.576;2022-09-03T02:49:05;28.58;;;17.27;;
46927;SDS011;32668;51.306;-0.576;2022-09-03T02:51:31;26.95;;;17.92;;
46927;SDS011;32668;51.306;-0.576;2022-09-03T02:54:03;25.58;;;15.60;;
46927;SDS011;32668;51.306;-0.576;2022-09-03T02:56:31;22.77;;;16.70;;
46927;SDS011;32668;51.306;-0.576;2022-09-03T02:58:57;19.67;;;16.70;;
46927;SDS011;32668;51.306;-0.576;2022-09-03T03:01:23;25.67;;;17.33;;
46927;SDS011;32668;51.306;-0.576;2022-09-03T03:03:48;19.52;;;15.77;;
46927;SDS011;32668;51.306;-0.576;2022-09-03T03:06:14;22.17;;;16.73;;
46927;SDS011;32668;51.306;-0.576;2022-09-03T03:08:40;24.85;;;16.13;;
46927;SDS011;32668;51.306;-0.576;2022-09-03T03:11:06;28.30;;;17.30;;
46927;SDS011;32668;51.306;-0.576;2022-09-03T03:13:32;19.88;;;15.90;;
46927;SDS011;32668;51.306;-0.576;2022-09-03T03:15:58;20.38;;;15.18;;
46927;SDS011;32668;51.306;-0.576;2022-09-03T03:18:25;18.77;;;15.30;;
46927;SDS011;32668;51.306;-0.576;2022-09-03T03:20:51;24.42;;;16.50;;
46927;SDS011;32668;51.306;-0.576;2022-09-03T03:23:17;22.83;;;18.48;;
46927;SDS011;32668;51.306;-0.576;2022-09-03T03:25:42;27.40;;;18.33;;
46927;SDS011;32668;51.306;-0.576;2022-09-03T03:28:08;23.38;;;18.58;;
46927;SDS011;32668;51.306;-0.576;2022-09-03T03:30:36;26.25;;;21.67;;
46927;SDS011;32668;51.306;-0.576;2022-09-03T03:33:03;28.58;;;22.00;;
46927;SDS011;32668;51.306;-0.576;2022-09-03T03:35:29;31.00;;;24.00;;
46927;SDS011;32668;51.306;-0.576;2022-09-03T03:37:56;32.97;;;23.58;;
46927;SDS011;32668;51.306;-0.576;2022-09-03T03:40:24;34.42;;;24.17;;
46927;SDS011;32668;51.306;-0.576;2022-09-03T03:42:50;31.85;;;23.48;;
46927;SDS011;32668;51.306;-0.576;2022-09-03T03:45:15;31.20;;;23.55;;
46927;SDS011;32668;51.306;-0.576;2022-09-03T03:47:41;32.97;;;22.58;;
46927;SDS011;32668;51.306;-0.576;2022-09-03T03:50:07;29.05;;;21.55;;
46927;SDS011;32668;51.306;-0.576;2022-09-03T03:52:32;32.30;;;23.42;;
46927;SDS011;32668;51.306;-0.576;2022-09-03T03:54:58;28.85;;;22.75;;
46927;SDS011;32668;51.306;-0.576;2022-09-03T03:57:23;29.17;;;23.85;;
46927;SDS011;32668;51.306;-0.576;2022-09-03T03:59:49;30.35;;;23.55;;
46927;SDS011;32668;51.306;-0.576;2022-09-03T04:02:14;29.88;;;24.52;;
46927;SDS011;32668;51.306;-0.576;2022-09-03T04:04:41;32.72;;;24.60;;
46927;SDS011;32668;51.306;-0.576;2022-09-03T04:07:07;31.08;;;23.58;;
46927;SDS011;32668;51.306;-0.576;2022-09-03T04:09:32;34.28;;;27.02;;
46927;SDS011;32668;51.306;-0.576;2022-09-03T04:11:58;31.70;;;24.52;;
46927;SDS011;32668;51.306;-0.576;2022-09-03T04:14:24;38.95;;;25.67;;
46927;SDS011;32668;51.306;-0.576;2022-09-03T04:16:51;35.92;;;26.27;;
46927;SDS011;32668;51.306;-0.576;2022-09-03T04:19:17;36.83;;;25.98;;
46927;SDS011;32668;51.306;-0.576;2022-09-03T04:21:43;33.22;;;24.27;;
46927;SDS011;32668;51.306;-0.576;2022-09-03T04:24:09;30.02;;;24.35;;
46927;SDS011;32668;51.306;-0.576;2022-09-03T04:26:34;34.35;;;25.50;;
46927;SDS011;32668;51.306;-0.576;2022-09-03T04:29:07;29.48;;;23.70;;
46927;SDS011;32668;51.306;-0.576;2022-09-03T04:31:34;35.15;;;26.25;;
46927;SDS011;32668;51.306;-0.576;2022-09-03T04:34:02;37.20;;;25.98;;
46927;SDS011;32668;51.306;-0.576;2022-09-03T04:36:30;32.90;;;24.80;;
46927;SDS011;32668;51.306;-0.576;2022-09-03T04:38:58;33.13;;;24.83;;
46927;SDS011;32668;51.306;-0.576;2022-09-03T04:41:26;35.85;;;27.33;;
46927;SDS011;32668;51.306;-0.576;2022-09-03T04:43:53;36.05;;;27.00;;
46927;SDS011;32668;51.306;-0.576;2022-09-03T04:46:21;37.70;;;27.98;;
46927;SDS011;32668;51.306;-0.576;2022-09-03T04:48:50;42.47;;;27.85;;
46927;SDS011;32668;51.306;-0.576;2022-09-03T04:51:17;36.65;;;25.63;;
46927;SDS011;32668;51.306;-0.576;2022-09-03T04:53:45;39.75;;;28.33;;
46927;SDS011;32668;51.306;-0.576;2022-09-03T04:56:16;40.63;;;27.20;;
46927;SDS011;32668;51.306;-0.576;2022-09-03T04:58:55;35.60;;;27.88;;
46927;SDS011;32668;51.306;-0.576;2022-09-03T05:01:23;35.92;;;26.42;;
46927;SDS011;32668;51.306;-0.576;2022-09-03T05:03:50;37.05;;;25.48;;
46927;SDS011;32668;51.306;-0.576;2022-09-03T05:06:18;36.65;;;27.83;;
46927;SDS011;32668;51.306;-0.576;2022-09-03T05:08:47;94.97;;;31.15;;
46927;SDS011;32668;51.306;-0.576;2022-09-03T05:11:14;146.05;;;31.08;;
46927;SDS011;32668;51.306;-0.576;2022-09-03T05:13:40;96.40;;;32.28;;
46927;SDS011;32668;51.306;-0.576;2022-09-03T05:16:09;76.32;;;31.65;;
46927;SDS011;32668;51.306;-0.576;2022-09-03T05:18:37;149.95;;;33.80;;
46927;SDS011;32668;51.306;-0.576;2022-09-03T05:21:07;97.15;;;31.73;;
46927;SDS011;32668;51.306;-0.576;2022-09-03T05:23:37;68.50;;;29.30;;
46927;SDS011;32668;51.306;-0.576;2022-09-03T05:26:05;53.63;;;28.60;;
46927;SDS011;32668;51.306;-0.576;2022-09-03T05:28:36;110.00;;;34.20;;
46927;SDS011;32668;51.306;-0.576;2022-09-03T05:31:04;148.80;;;29.23;;
46927;SDS011;32668;51.306;-0.576;2022-09-03T05:33:34;84.05;;;28.33;;
46927;SDS011;32668;51.306;-0.576;2022-09-03T05:36:07;73.95;;;29.08;;
46927;SDS011;32668;51.306;-0.576;2022-09-03T05:38:34;107.88;;;27.60;;
46927;SDS011;32668;51.306;-0.576;2022-09-03T05:41:03;56.78;;;25.23;;
46927;SDS011;32668;51.306;-0.576;2022-09-03T05:43:30;52.67;;;24.30;;
46927;SDS011;32668;51.306;-0.576;2022-09-03T05:46:01;41.70;;;24.05;;
46927;SDS011;32668;51.306;-0.576;2022-09-03T05:48:28;51.85;;;22.90;;
46927;SDS011;32668;51.306;-0.576;2022-09-03T05:51:02;36.80;;;21.52;;
46927;SDS011;32668;51.306;-0.576;2022-09-03T05:53:29;32.33;;;20.77;;
46927;SDS011;32668;51.306;-0.576;2022-09-03T05:55:57;34.15;;;20.05;;
46927;SDS011;32668;51.306;-0.576;2022-09-03T05:58:23;30.88;;;17.50;;
46927;SDS011;32668;51.306;-0.576;2022-09-03T06:00:49;28.30;;;16.98;;
46927;SDS011;32668;51.306;-0.576;2022-09-03T06:03:15;24.77;;;15.65;;
46927;SDS011;32668;51.306;-0.576;2022-09-03T06:05:48;22.80;;;15.07;;
46927;SDS011;32668;51.306;-0.576;2022-09-03T06:08:17;21.08;;;14.95;;
46927;SDS011;32668;51.306;-0.576;2022-09-03T06:10:42;20.52;;;14.00;;
46927;SDS011;32668;51.306;-0.576;2022-09-03T06:13:08;22.40;;;15.20;;
46927;SDS011;32668;51.306;-0.576;2022-09-03T06:15:34;21.02;;;14.27;;
46927;SDS011;32668;51.306;-0.576;2022-09-03T06:17:59;35.13;;;12.18;;
46927;SDS011;32668;51.306;-0.576;2022-09-03T06:20:25;57.22;;;13.35;;
46927;SDS011;32668;51.306;-0.576;2022-09-03T06:22:52;37.45;;;15.82;;
46927;SDS011;32668;51.306;-0.576;2022-09-03T06:25:18;35.33;;;13.23;;
46927;SDS011;32668;51.306;-0.576;2022-09-03T06:27:44;54.67;;;15.23;;
46927;SDS011;32668;51.306;-0.576;2022-09-03T06:30:10;27.48;;;13.80;;
46927;SDS011;32668;51.306;-0.576;2022-09-03T06:32:45;38.80;;;15.68;;
46927;SDS011;32668;51.306;-0.576;2022-09-03T06:35:11;61.10;;;16.30;;
46927;SDS011;32668;51.306;-0.576;2022-09-03T06:37:40;113.65;;;17.38;;
46927;SDS011;32668;51.306;-0.576;2022-09-03T06:40:07;65.40;;;16.58;;
46927;SDS011;32668;51.306;-0.576;2022-09-03T06:42:36;70.95;;;16.92;;
46927;SDS011;32668;51.306;-0.576;2022-09-03T06:45:02;53.05;;;16.20;;
46927;SDS011;32668;51.306;-0.576;2022-09-03T06:47:28;70.28;;;17.88;;
46927;SDS011;32668;51.306;-0.576;2022-09-03T06:49:54;33.33;;;16.63;;
46927;SDS011;32668;51.306;-0.576;2022-09-03T06:52:19;41.58;;;18.48;;
46927;SDS011;32668;51.306;-0.576;2022-09-03T06:54:44;39.13;;;17.23;;
46927;SDS011;32668;51.306;-0.576;2022-09-03T06:57:10;32.92;;;18.30;;
46927;SDS011;32668;51.306;-0.576;2022-09-03T06:59:35;71.75;;;20.83;;
46927;SDS011;32668;51.306;-0.576;2022-09-03T07:02:00;35.55;;;20.90;;
46927;SDS011;32668;51.306;-0.576;2022-09-03T07:04:27;53.03;;;23.80;;
46927;SDS011;32668;51.306;-0.576;2022-09-03T07:06:53;42.28;;;21.25;;
46927;SDS011;32668;51.306;-0.576;2022-09-03T07:09:18;99.68;;;23.30;;
46927;SDS011;32668;51.306;-0.576;2022-09-03T07:11:44;32.95;;;21.58;;
46927;SDS011;32668;51.306;-0.576;2022-09-03T07:14:13;28.15;;;21.65;;
46927;SDS011;32668;51.306;-0.576;2022-09-03T07:16:40;70.00;;;22.10;;
46927;SDS011;32668;51.306;-0.576;2022-09-03T07:19:06;27.77;;;22.00;;
46927;SDS011;32668;51.306;-0.576;2022-09-03T07:21:33;28.27;;;19.98;;
46927;SDS011;32668;51.306;-0.576;2022-09-03T07:24:05;32.00;;;22.42;;
46927;SDS011;32668;51.306;-0.576;2022-09-03T07:26:32;31.35;;;22.92;;
46927;SDS011;32668;51.306;-0.576;2022-09-03T07:29:01;31.80;;;23.25;;
46927;SDS011;32668;51.306;-0.576;2022-09-03T07:31:29;34.85;;;24.23;;
46927;SDS011;32668;51.306;-0.576;2022-09-03T07:36:23;60.08;;;29.20;;
46927;SDS011;32668;51.306;-0.576;2022-09-03T07:38:50;85.00;;;32.08;;
46927;SDS011;32668;51.306;-0.576;2022-09-03T07:41:19;49.03;;;28.67;;
46927;SDS011;32668;51.306;-0.576;2022-09-03T07:43:45;81.28;;;30.25;;
46927;SDS011;32668;51.306;-0.576;2022-09-03T07:46:14;72.95;;;31.35;;
46927;SDS011;32668;51.306;-0.576;2022-09-03T07:48:50;55.28;;;30.45;;
46927;SDS011;32668;51.306;-0.576;2022-09-03T07:53:50;60.85;;;29.60;;
46927;SDS011;32668;51.306;-0.576;2022-09-03T07:56:17;54.80;;;27.95;;
46927;SDS011;32668;51.306;-0.576;2022-09-03T07:58:42;58.65;;;28.35;;
46927;SDS011;32668;51.306;-0.576;2022-09-03T08:01:11;52.38;;;26.95;;
46927;SDS011;32668;51.306;-0.576;2022-09-03T08:03:48;59.22;;;26.90;;
46927;SDS011;32668;51.306;-0.576;2022-09-03T08:06:16;68.88;;;29.77;;
46927;SDS011;32668;51.306;-0.576;2022-09-03T08:08:43;47.88;;;25.23;;
46927;SDS011;32668;51.306;-0.576;2022-09-03T08:11:14;44.88;;;26.25;;
46927;SDS011;32668;51.306;-0.576;2022-09-03T08:13:41;49.88;;;29.73;;
46927;SDS011;32668;51.306;-0.576;2022-09-03T08:16:09;40.97;;;25.65;;
46927;SDS011;32668;51.306;-0.576;2022-09-03T08:18:36;43.38;;;27.50;;
46927;SDS011;32668;51.306;-0.576;2022-09-03T08:21:07;48.50;;;30.92;;
46927;SDS011;32668;51.306;-0.576;2022-09-03T08:23:37;48.13;;;31.30;;
46927;SDS011;32668;51.306;-0.576;2022-09-03T08:26:04;48.75;;;29.50;;
46927;SDS011;32668;51.306;-0.576;2022-09-03T08:28:31;46.58;;;27.73;;
46927;SDS011;32668;51.306;-0.576;2022-09-03T08:30:59;55.00;;;29.70;;
46927;SDS011;32668;51.306;-0.576;2022-09-03T08:33:29;43.17;;;28.35;;
46927;SDS011;32668;51.306;-0.576;2022-09-03T08:36:05;38.95;;;27.95;;
46927;SDS011;32668;51.306;-0.576;2022-09-03T08:38:38;39.42;;;27.40;;
46927;SDS011;32668;51.306;-0.576;2022-09-03T08:41:05;39.35;;;28.50;;
46927;SDS011;32668;51.306;-0.576;2022-09-03T08:43:37;33.17;;;24.30;;
46927;SDS011;32668;51.306;-0.576;2022-09-03T08:46:23;37.53;;;26.58;;
46927;SDS011;32668;51.306;-0.576;2022-09-03T08:48:52;33.35;;;23.10;;
46927;SDS011;32668;51.306;-0.576;2022-09-03T08:51:18;34.95;;;24.35;;
46927;SDS011;32668;51.306;-0.576;2022-09-03T08:53:48;30.90;;;21.98;;
46927;SDS011;32668;51.306;-0.576;2022-09-03T08:56:29;31.27;;;21.80;;
46927;SDS011;32668;51.306;-0.576;2022-09-03T08:58:55;25.50;;;20.27;;
46927;SDS011;32668;51.306;-0.576;2022-09-03T09:16:05;21.27;;;16.33;;
46927;SDS011;32668;51.306;-0.576;2022-09-03T09:21:16;23.05;;;17.77;;
46927;SDS011;32668;51.306;-0.576;2022-09-03T09:23:45;27.58;;;20.10;;
46927;SDS011;32668;51.306;-0.576;2022-09-03T09:26:14;23.70;;;18.58;;
46927;SDS011;32668;51.306;-0.576;2022-09-03T09:28:42;21.15;;;14.93;;
46927;SDS011;32668;51.306;-0.576;2022-09-03T09:31:12;23.25;;;17.55;;
46927;SDS011;32668;51.306;-0.576;2022-09-03T09:33:40;20.75;;;13.70;;
46927;SDS011;32668;51.306;-0.576;2022-09-03T09:36:07;19.58;;;16.20;;
46927;SDS011;32668;51.306;-0.576;2022-09-03T09:38:36;13.35;;;10.93;;
46927;SDS011;32668;51.306;-0.576;2022-09-03T09:41:13;15.00;;;9.60;;
46927;SDS011;32668;51.306;-0.576;2022-09-03T09:43:41;17.45;;;11.85;;
46927;SDS011;32668;51.306;-0.576;2022-09-03T09:46:14;18.40;;;12.05;;
46927;SDS011;32668;51.306;-0.576;2022-09-03T09:48:55;16.67;;;13.63;;
46927;SDS011;32668;51.306;-0.576;2022-09-03T09:51:24;14.00;;;11.73;;
46927;SDS011;32668;51.306;-0.576;2022-09-03T09:54:01;20.15;;;12.95;;
46927;SDS011;32668;51.306;-0.576;2022-09-03T09:56:30;17.13;;;12.60;;
46927;SDS011;32668;51.306;-0.576;2022-09-03T09:59:06;16.38;;;12.73;;
46927;SDS011;32668;51.306;-0.576;2022-09-03T10:01:33;23.35;;;14.32;;
46927;SDS011;32668;51.306;-0.576;2022-09-03T10:04:34;20.48;;;14.98;;
46927;SDS011;32668;51.306;-0.576;2022-09-03T10:07:15;16.52;;;12.25;;
46927;SDS011;32668;51.306;-0.576;2022-09-03T10:10:03;21.38;;;13.55;;
46927;SDS011;32668;51.306;-0.576;2022-09-03T10:15:40;11.07;;;8.57;;
46927;SDS011;32668;51.306;-0.576;2022-09-03T10:18:41;12.15;;;7.90;;
46927;SDS011;32668;51.306;-0.576;2022-09-03T10:21:11;10.60;;;8.48;;
46927;SDS011;32668;51.306;-0.576;2022-09-03T10:26:26;12.98;;;9.65;;
46927;SDS011;32668;51.306;-0.576;2022-09-03T10:29:05;12.85;;;9.32;;
46927;SDS011;32668;51.306;-0.576;2022-09-03T10:37:15;12.23;;;7.03;;
46927;SDS011;32668;51.306;-0.576;2022-09-03T10:42:41;11.93;;;9.05;;
46927;SDS011;32668;51.306;-0.576;2022-09-03T10:50:32;8.93;;;6.53;;
46927;SDS011;32668;51.306;-0.576;2022-09-03T10:55:47;10.10;;;7.55;;
46927;SDS011;32668;51.306;-0.576;2022-09-03T10:58:33;11.93;;;5.32;;
46927;SDS011;32668;51.306;-0.576;2022-09-03T11:01:26;8.68;;;6.30;;
46927;SDS011;32668;51.306;-0.576;2022-09-03T11:07:03;7.15;;;4.70;;
46927;SDS011;32668;51.306;-0.576;2022-09-03T11:09:35;14.45;;;8.35;;
46927;SDS011;32668;51.306;-0.576;2022-09-03T11:12:10;17.85;;;9.25;;
46927;SDS011;32668;51.306;-0.576;2022-09-03T11:14:52;10.77;;;6.85;;
46927;SDS011;32668;51.306;-0.576;2022-09-03T11:17:31;13.32;;;7.50;;
46927;SDS011;32668;51.306;-0.576;2022-09-03T11:20:21;8.35;;;5.03;;
46927;SDS011;32668;51.306;-0.576;2022-09-03T11:22:49;10.77;;;7.40;;
46927;SDS011;32668;51.306;-0.576;2022-09-03T11:25:18;8.90;;;6.10;;
46927;SDS011;32668;51.306;-0.576;2022-09-03T11:27:53;11.77;;;7.47;;
46927;SDS011;32668;51.306;-0.576;2022-09-03T11:33:30;12.45;;;8.13;;
46927;SDS011;32668;51.306;-0.576;2022-09-03T11:36:04;34.65;;;12.52;;
46927;SDS011;32668;51.306;-0.576;2022-09-03T11:38:30;16.25;;;10.82;;
46927;SDS011;32668;51.306;-0.576;2022-09-03T11:40:57;24.85;;;16.02;;
46927;SDS011;32668;51.306;-0.576;2022-09-03T11:43:31;43.90;;;24.48;;
46927;SDS011;32668;51.306;-0.576;2022-09-03T11:46:05;65.25;;;35.15;;
46927;SDS011;32668;51.306;-0.576;2022-09-03T11:56:49;37.30;;;23.08;;
46927;SDS011;32668;51.306;-0.576;2022-09-03T11:59:24;33.95;;;20.70;;
46927;SDS011;32668;51.306;-0.576;2022-09-03T12:04:29;25.65;;;16.85;;
46927;SDS011;32668;51.306;-0.576;2022-09-03T12:10:03;14.50;;;12.18;;
46927;SDS011;32668;51.306;-0.576;2022-09-03T12:15:58;18.67;;;11.00;;
46927;SDS011;32668;51.306;-0.576;2022-09-03T12:18:32;14.32;;;11.88;;
46927;SDS011;32668;51.306;-0.576;2022-09-03T12:23:32;14.85;;;11.52;;
46927;SDS011;32668;51.306;-0.576;2022-09-03T12:26:15;17.40;;;13.38;;
46927;SDS011;32668;51.306;-0.576;2022-09-03T12:28:53;13.60;;;11.38;;
46927;SDS011;32668;51.306;-0.576;2022-09-03T12:31:24;19.20;;;13.63;;
46927;SDS011;32668;51.306;-0.576;2022-09-03T12:33:57;15.70;;;11.40;;
46927;SDS011;32668;51.306;-0.576;2022-09-03T12:36:25;13.73;;;11.23;;
46927;SDS011;32668;51.306;-0.576;2022-09-03T12:39:10;19.27;;;12.07;;
46927;SDS011;32668;51.306;-0.576;2022-09-03T12:41:45;12.45;;;11.10;;
46927;SDS011;32668;51.306;-0.576;2022-09-03T12:44:27;18.50;;;13.57;;
46927;SDS011;32668;51.306;-0.576;2022-09-03T12:47:10;15.25;;;12.77;;
46927;SDS011;32668;51.306;-0.576;2022-09-03T12:49:41;16.83;;;13.57;;
46927;SDS011;32668;51.306;-0.576;2022-09-03T12:54:56;11.55;;;9.23;;
46927;SDS011;32668;51.306;-0.576;2022-09-03T12:57:29;13.05;;;10.75;;
46927;SDS011;32668;51.306;-0.576;2022-09-03T13:00:03;15.93;;;11.07;;
46927;SDS011;32668;51.306;-0.576;2022-09-03T13:03:16;12.80;;;10.35;;
46927;SDS011;32668;51.306;-0.576;2022-09-03T13:05:44;12.95;;;8.93;;
46927;SDS011;32668;51.306;-0.576;2022-09-03T13:08:26;10.63;;;6.57;;
46927;SDS011;32668;51.306;-0.576;2022-09-03T13:10:56;9.77;;;5.90;;
46927;SDS011;32668;51.306;-0.576;2022-09-03T13:13:34;8.40;;;6.20;;
46927;SDS011;32668;51.306;-0.576;2022-09-03T13:26:25;9.90;;;4.60;;
46927;SDS011;32668;51.306;-0.576;2022-09-03T13:31:48;6.25;;;3.97;;
46927;SDS011;32668;51.306;-0.576;2022-09-03T13:39:46;6.50;;;4.10;;
46927;SDS011;32668;51.306;-0.576;2022-09-03T13:45:14;6.82;;;4.50;;
46927;SDS011;32668;51.306;-0.576;2022-09-03T13:47:44;6.82;;;4.63;;
46927;SDS011;32668;51.306;-0.576;2022-09-03T13:50:46;7.53;;;4.43;;
46927;SDS011;32668;51.306;-0.576;2022-09-03T13:53:29;7.72;;;5.00;;
46927;SDS011;32668;51.306;-0.576;2022-09-03T13:55:56;8.65;;;4.30;;
46927;SDS011;32668;51.306;-0.576;2022-09-03T13:58:36;9.70;;;4.88;;
46927;SDS011;32668;51.306;-0.576;2022-09-03T14:01:14;11.68;;;4.82;;
46927;SDS011;32668;51.306;-0.576;2022-09-03T14:03:59;4.32;;;3.63;;
46927;SDS011;32668;51.306;-0.576;2022-09-03T14:14:01;9.60;;;4.70;;
46927;SDS011;32668;51.306;-0.576;2022-09-03T14:17:08;11.88;;;4.88;;
46927;SDS011;32668;51.306;-0.576;2022-09-03T14:19:45;9.77;;;4.53;;
46927;SDS011;32668;51.306;-0.576;2022-09-03T14:22:25;11.20;;;5.45;;
46927;SDS011;32668;51.306;-0.576;2022-09-03T14:24:58;10.98;;;5.55;;
46927;SDS011;32668;51.306;-0.576;2022-09-03T14:27:30;10.30;;;5.72;;
46927;SDS011;32668;51.306;-0.576;2022-09-03T14:29:58;10.88;;;5.05;;
46927;SDS011;32668;51.306;-0.576;2022-09-03T14:32:26;6.28;;;5.30;;
46927;SDS011;32668;51.306;-0.576;2022-09-03T14:46:41;7.80;;;4.63;;
46927;SDS011;32668;51.306;-0.576;2022-09-03T15:00:17;9.82;;;5.70;;
46927;SDS011;32668;51.306;-0.576;2022-09-03T15:11:48;7.35;;;4.05;;
46927;SDS011;32668;51.306;-0.576;2022-09-03T15:37:07;7.65;;;5.15;;
46927;SDS011;32668;51.306;-0.576;2022-09-03T15:39:41;10.18;;;5.35;;
46927;SDS011;32668;51.306;-0.576;2022-09-03T15:42:10;8.20;;;4.78;;
46927;SDS011;32668;51.306;-0.576;2022-09-03T15:44:50;8.32;;;5.32;;
46927;SDS011;32668;51.306;-0.576;2022-09-03T15:53:02;7.38;;;4.25;;
46927;SDS011;32668;51.306;-0.576;2022-09-03T15:55:42;8.75;;;5.65;;
46927;SDS011;32668;51.306;-0.576;2022-09-03T16:00:56;8.57;;;4.40;;
46927;SDS011;32668;51.306;-0.576;2022-09-03T16:06:01;9.68;;;4.65;;
46927;SDS011;32668;51.306;-0.576;2022-09-03T16:08:45;8.75;;;5.22;;
46927;SDS011;32668;51.306;-0.576;2022-09-03T16:17:07;10.52;;;5.43;;
46927;SDS011;32668;51.306;-0.576;2022-09-03T16:22:25;8.45;;;5.32;;
46927;SDS011;32668;51.306;-0.576;2022-09-03T16:42:00;11.48;;;6.18;;
46927;SDS011;32668;51.306;-0.576;2022-09-03T16:44:43;9.73;;;5.65;;
46927;SDS011;32668;51.306;-0.576;2022-09-03T16:47:24;8.60;;;5.38;;
46927;SDS011;32668;51.306;-0.576;2022-09-03T16:52:47;15.27;;;6.57;;
46927;SDS011;32668;51.306;-0.576;2022-09-03T17:06:39;9.52;;;5.50;;
46927;SDS011;32668;51.306;-0.576;2022-09-03T17:11:42;11.10;;;6.00;;
46927;SDS011;32668;51.306;-0.576;2022-09-03T17:17:02;10.13;;;5.50;;
46927;SDS011;32668;51.306;-0.576;2022-09-03T17:27:42;10.63;;;5.95;;
46927;SDS011;32668;51.306;-0.576;2022-09-03T17:30:20;12.13;;;5.88;;
46927;SDS011;32668;51.306;-0.576;2022-09-03T17:41:38;9.52;;;5.53;;
46927;SDS011;32668;51.306;-0.576;2022-09-03T17:49:59;10.93;;;5.80;;
46927;SDS011;32668;51.306;-0.576;2022-09-03T17:54:57;14.18;;;5.95;;
46927;SDS011;32668;51.306;-0.576;2022-09-03T17:57:28;9.43;;;5.03;;
46927;SDS011;32668;51.306;-0.576;2022-09-03T18:00:03;10.13;;;5.60;;
46927;SDS011;32668;51.306;-0.576;2022-09-03T18:02:33;10.88;;;6.10;;
46927;SDS011;32668;51.306;-0.576;2022-09-03T18:05:20;15.30;;;5.65;;
46927;SDS011;32668;51.306;-0.576;2022-09-03T18:08:04;11.27;;;5.65;;
46927;SDS011;32668;51.306;-0.576;2022-09-03T18:13:47;10.70;;;5.60;;
46927;SDS011;32668;51.306;-0.576;2022-09-03T18:16:26;10.77;;;5.45;;
46927;SDS011;32668;51.306;-0.576;2022-09-03T18:18:57;9.40;;;5.30;;
46927;SDS011;32668;51.306;-0.576;2022-09-03T18:21:27;9.60;;;5.82;;
46927;SDS011;32668;51.306;-0.576;2022-09-03T18:24:32;7.70;;;5.50;;
46927;SDS011;32668;51.306;-0.576;2022-09-03T18:27:43;10.80;;;5.50;;
46927;SDS011;32668;51.306;-0.576;2022-09-03T18:30:33;10.60;;;5.50;;
46927;SDS011;32668;51.306;-0.576;2022-09-03T18:33:24;11.70;;;6.20;;
46927;SDS011;32668;51.306;-0.576;2022-09-03T18:36:09;9.75;;;5.65;;
46927;SDS011;32668;51.306;-0.576;2022-09-03T18:39:01;9.38;;;5.35;;
46927;SDS011;32668;51.306;-0.576;2022-09-03T18:41:58;12.95;;;6.40;;
46927;SDS011;32668;51.306;-0.576;2022-09-03T18:44:50;10.95;;;5.25;;
46927;SDS011;32668;51.306;-0.576;2022-09-03T18:53:44;8.63;;;5.35;;
46927;SDS011;32668;51.306;-0.576;2022-09-03T18:56:51;10.27;;;5.28;;
46927;SDS011;32668;51.306;-0.576;2022-09-03T18:59:45;18.13;;;5.75;;
46927;SDS011;32668;51.306;-0.576;2022-09-03T19:18:00;13.48;;;5.53;;
46927;SDS011;32668;51.306;-0.576;2022-09-03T19:24:04;10.68;;;4.95;;
46927;SDS011;32668;51.306;-0.576;2022-09-03T19:30:21;11.82;;;5.03;;
46927;SDS011;32668;51.306;-0.576;2022-09-03T19:36:01;10.52;;;5.28;;
46927;SDS011;32668;51.306;-0.576;2022-09-03T19:39:06;9.57;;;5.35;;
46927;SDS011;32668;51.306;-0.576;2022-09-03T19:51:15;12.88;;;6.30;;
46927;SDS011;32668;51.306;-0.576;2022-09-03T19:54:03;12.95;;;6.32;;
46927;SDS011;32668;51.306;-0.576;2022-09-03T19:56:52;12.90;;;6.22;;
46927;SDS011;32668;51.306;-0.576;2022-09-03T19:59:39;9.95;;;6.30;;
46927;SDS011;32668;51.306;-0.576;2022-09-03T20:02:25;12.90;;;6.05;;
46927;SDS011;32668;51.306;-0.576;2022-09-03T20:05:11;11.25;;;6.32;;
46927;SDS011;32668;51.306;-0.576;2022-09-03T20:07:59;13.35;;;5.95;;
46927;SDS011;32668;51.306;-0.576;2022-09-03T20:10:43;12.80;;;6.47;;
46927;SDS011;32668;51.306;-0.576;2022-09-03T20:13:19;12.27;;;6.32;;
46927;SDS011;32668;51.306;-0.576;2022-09-03T20:18:26;12.63;;;6.25;;
46927;SDS011;32668;51.306;-0.576;2022-09-03T20:29:47;10.32;;;6.50;;
46927;SDS011;32668;51.306;-0.576;2022-09-03T20:40:47;9.48;;;6.28;;
46927;SDS011;32668;51.306;-0.576;2022-09-03T21:10:53;14.05;;;6.68;;
46927;SDS011;32668;51.306;-0.576;2022-09-03T21:13:41;11.02;;;5.93;;
46927;SDS011;32668;51.306;-0.576;2022-09-03T21:16:22;13.27;;;6.95;;
46927;SDS011;32668;51.306;-0.576;2022-09-03T21:26:50;10.75;;;6.47;;
46927;SDS011;32668;51.306;-0.576;2022-09-03T21:29:23;12.07;;;6.47;;
46927;SDS011;32668;51.306;-0.576;2022-09-03T21:37:22;12.65;;;6.70;;
46927;SDS011;32668;51.306;-0.576;2022-09-03T21:39:55;13.05;;;6.93;;